Asterion — FICK — position and weather

sailwx.info

Track history (hours):
 
Tides and Currents Weather Stations Pressure Air Temp Water Temp Dewpoint Dewpoint Depression Visibility Wind Speed Wind Dir Waves Ship Positions

Asterion

Last reported at 2015-Apr-28 09:33 UTC. Time now 2015-Apr-28 10:18 UTC.
Position N 43°57' E 008°59'.

Length 184 m; draft 7.1 m.

Type: Tanker. MMSI: 226000000.

Date/timePositionNaut miles runAvg speedWind from/ knotsBaromVisibWave heightAir tempDewpointWater temp
2015-Apr-28 09:33N 43°57' E 008°59'2 2.4
2015-Apr-28 08:34N 43°59' E 008°59'4 3.8
2015-Apr-28 07:33N 44°03' E 008°58'4 3.9
2015-Apr-28 06:34N 44°07' E 008°57'4 4.0
2015-Apr-28 05:34N 44°10' E 008°56'3 3.0
2015-Apr-28 04:33N 44°13' E 008°55'2 1.5
2015-Apr-28 03:33N 44°12' E 008°56'2 1.6
2015-Apr-28 02:33N 44°10' E 008°56'2 1.6
2015-Apr-28 01:34N 44°09' E 008°57'1 1.4
2015-Apr-28 00:33N 44°08' E 008°57'2 1.6
2015-Apr-27 23:33N 44°06' E 008°58'2 1.6
2015-Apr-27 22:33N 44°04' E 008°58'2 1.7
2015-Apr-27 21:33N 44°03' E 008°59'2 2.0
2015-Apr-27 20:34N 44°01' E 008°60'2 2.1
2015-Apr-27 19:33N 44°03' E 009°01'7 7.2
2015-Apr-27 18:34N 44°09' E 009°06'1 1.4
2015-Apr-27 17:34N 44°08' E 009°06'2 1.6
2015-Apr-27 16:33N 44°07' E 009°07'1 1.5
2015-Apr-27 15:33N 44°05' E 009°09'1 1.2
2015-Apr-27 14:34N 44°05' E 009°10'6 5.9
2015-Apr-27 13:33N 44°05' E 009°01'5 4.6
2015-Apr-27 12:33N 44°06' E 008°55'4 3.7
2015-Apr-27 11:34N 44°08' E 008°50'4 3.8
2015-Apr-27 10:34N 44°08' E 008°45'4 4.1
2015-Apr-27 09:34N 44°09' E 008°39'1 1.1
2015-Apr-27 08:33N 44°10' E 008°39'1 1.2
2015-Apr-27 07:33N 44°11' E 008°40'1 1.3
2015-Apr-27 06:33N 44°11' E 008°42'1 1.2
2015-Apr-27 05:33N 44°11' E 008°43'2 1.5
2015-Apr-27 04:33N 44°11' E 008°45'2 1.8
2015-Apr-27 03:33N 44°10' E 008°48'2 1.8
2015-Apr-27 02:33N 44°10' E 008°50'2 1.7
2015-Apr-27 01:33N 44°09' E 008°52'2 1.8
2015-Apr-27 00:33N 44°09' E 008°55'2 1.9
2015-Apr-26 23:33N 44°08' E 008°57'2 1.9
2015-Apr-26 22:34N 44°07' E 008°60'2 1.8
2015-Apr-26 21:33N 44°06' E 009°02'2 1.6
2015-Apr-26 20:33N 44°06' E 009°04'5 5.0
2015-Apr-26 19:34N 44°01' E 009°04'1312.8
2015-Apr-26 18:34N 43°48' E 009°04'1312.8
2015-Apr-26 17:33N 43°36' E 009°12'1313.0
2015-Apr-26 16:33N 43°25' E 009°21'1312.8
2015-Apr-26 15:33N 43°13' E 009°29'1313.1
2015-Apr-26 14:33N 43°02' E 009°36'2813.1
2015-Apr-26 12:27N 42°35' E 009°48'3812.3
2015-Apr-26 09:23N 42°03' E 010°14'1512.8
2015-Apr-26 08:13N 41°53' E 010°29'16512.9
2015-Apr-25 19:25N 40°03' E 013°13'3913.0
2015-Apr-25 16:27N 39°38' E 013°51'1213.0
2015-Apr-25 15:31N 39°30' E 014°03'1313.0
2015-Apr-25 14:32N 39°21' E 014°15'1413.4
2015-Apr-25 13:28N 39°12' E 014°29'1213.3
2015-Apr-25 12:32N 39°04' E 014°41'2713.4
2015-Apr-25 10:33N 38°48' E 015°08'3213.0
2015-Apr-25 08:08N 38°25' E 015°36'1110.4
2015-Apr-25 07:03N 38°13' E 015°37'2113.0
2015-Apr-25 05:26N 37°53' E 015°41'1212.5
2015-Apr-25 04:29N 37°49' E 015°56'37110.9
2015-Apr-23 18:33N 37°33' E 023°44'1313.0
2015-Apr-23 17:33N 37°45' E 023°39'9 8.8
2015-Apr-23 16:32N 37°52' E 023°32'0 0.0
2015-Apr-23 15:32N 37°52' E 023°32'0 0.0
2015-Apr-23 14:32N 37°52' E 023°32'0 0.0
2015-Apr-23 13:32N 37°52' E 023°32'0 0.0
2015-Apr-23 12:32N 37°52' E 023°32'0 0.0
2015-Apr-23 11:32N 37°52' E 023°33'0 0.0
2015-Apr-23 10:32N 37°52' E 023°32'0 0.0
2015-Apr-23 09:32N 37°52' E 023°32'0 0.0
2015-Apr-23 08:32N 37°52' E 023°33'0 0.1
2015-Apr-23 07:32N 37°52' E 023°32'0 0.1
2015-Apr-23 06:32N 37°52' E 023°32'0 0.0
2015-Apr-23 05:32N 37°52' E 023°32'0 0.0
2015-Apr-23 04:32N 37°52' E 023°32'0 0.0
2015-Apr-23 03:32N 37°52' E 023°32'0 0.0
2015-Apr-23 02:32N 37°52' E 023°32'0 0.0
2015-Apr-23 01:32N 37°52' E 023°32'0 0.0
2015-Apr-23 00:32N 37°52' E 023°32'0 0.0
2015-Apr-22 23:32N 37°52' E 023°32'0 0.0
2015-Apr-22 22:32N 37°52' E 023°32'0 0.1
2015-Apr-22 21:32N 37°52' E 023°32'0 0.0
2015-Apr-22 20:32N 37°52' E 023°32'0 0.0
2015-Apr-22 19:32N 37°52' E 023°32'0 0.1
2015-Apr-22 18:32N 37°52' E 023°33'0 0.0
2015-Apr-22 17:32N 37°52' E 023°33'0 0.0
2015-Apr-22 16:32N 37°52' E 023°32'0 0.0
2015-Apr-22 15:32N 37°52' E 023°32'0 0.1
2015-Apr-22 14:32N 37°52' E 023°33'0 0.0
2015-Apr-22 13:32N 37°52' E 023°33'0 0.0
2015-Apr-22 12:32N 37°52' E 023°33'0 0.0
2015-Apr-22 11:32N 37°52' E 023°33'0 0.0
2015-Apr-22 10:32N 37°52' E 023°33'0 0.0
2015-Apr-22 09:32N 37°52' E 023°33'0 0.0
2015-Apr-22 08:32N 37°52' E 023°33'0 0.1
2015-Apr-22 07:32N 37°52' E 023°33'0 0.1
2015-Apr-22 06:32N 37°52' E 023°32'0 0.0
2015-Apr-22 05:32N 37°52' E 023°32'0 0.0
2015-Apr-22 04:32N 37°52' E 023°32'0 0.0
2015-Apr-22 03:32N 37°52' E 023°32'0 0.0
2015-Apr-22 02:32N 37°52' E 023°32'0 0.0
2015-Apr-22 01:32N 37°52' E 023°32'0 0.0
2015-Apr-22 00:32N 37°52' E 023°32'0 0.0
2015-Apr-21 23:32N 37°52' E 023°32'0 0.1
2015-Apr-21 22:32N 37°52' E 023°32'0 0.0
2015-Apr-21 21:32N 37°52' E 023°32'0 0.0
2015-Apr-21 20:32N 37°52' E 023°32'0 0.0
2015-Apr-21 19:32N 37°52' E 023°32'0 0.0
2015-Apr-21 18:32N 37°52' E 023°32'0 0.0
2015-Apr-21 17:32N 37°52' E 023°32'0 0.0
2015-Apr-21 16:32N 37°52' E 023°32'0 0.1
2015-Apr-21 15:32N 37°52' E 023°32'0 0.0
2015-Apr-21 14:32N 37°52' E 023°32'0 0.0
2015-Apr-21 13:32N 37°52' E 023°32'0 0.0
2015-Apr-21 12:32N 37°52' E 023°32'0 0.0
2015-Apr-21 11:32N 37°52' E 023°32'0 0.0
2015-Apr-21 10:32N 37°52' E 023°32'0 0.0
2015-Apr-21 09:32N 37°52' E 023°32'0 0.0
2015-Apr-21 08:32N 37°52' E 023°32'0 0.0
2015-Apr-21 07:32N 37°52' E 023°32'0 0.1
2015-Apr-21 06:32N 37°52' E 023°33'0 0.0
2015-Apr-21 05:29N 37°52' E 023°33'0 0.0
2015-Apr-21 04:32N 37°52' E 023°33'0 0.0
2015-Apr-21 03:32N 37°52' E 023°33'0 0.0
2015-Apr-21 02:29N 37°52' E 023°33'0 0.0
2015-Apr-21 01:32N 37°52' E 023°33'0 0.0
2015-Apr-21 00:32N 37°52' E 023°33'0 0.1
2015-Apr-20 23:32N 37°52' E 023°32'0 0.0
2015-Apr-20 22:32N 37°52' E 023°32'0 0.0
2015-Apr-20 21:32N 37°52' E 023°32'0 0.0
2015-Apr-20 20:32N 37°52' E 023°32'0 0.0
2015-Apr-20 19:32N 37°52' E 023°32'0 0.0
2015-Apr-20 18:32N 37°52' E 023°32'0 0.1
2015-Apr-20 17:32N 37°52' E 023°32'0 0.2
2015-Apr-20 16:32N 37°52' E 023°33'0 0.1
2015-Apr-20 15:32N 37°52' E 023°33'0 0.1
2015-Apr-20 14:26N 37°52' E 023°33'0 0.1
2015-Apr-20 13:32N 37°52' E 023°33'0 0.1
2015-Apr-20 12:32N 37°52' E 023°32'0 0.1
2015-Apr-20 11:26N 37°52' E 023°32'0 0.1
2015-Apr-20 10:32N 37°52' E 023°32'0 0.0
2015-Apr-20 09:32N 37°52' E 023°32'0 0.0
2015-Apr-20 08:32N 37°52' E 023°32'0 0.0
2015-Apr-20 07:32N 37°52' E 023°32'0 0.0
2015-Apr-20 06:32N 37°52' E 023°32'0 0.1
2015-Apr-20 05:32N 37°52' E 023°32'0 0.1
2015-Apr-20 04:32N 37°52' E 023°32'0 0.0
2015-Apr-20 03:32N 37°52' E 023°32'0 0.0
2015-Apr-20 02:32N 37°52' E 023°32'0 0.0
2015-Apr-20 01:32N 37°52' E 023°32'0 0.0
2015-Apr-20 00:32N 37°52' E 023°32'0 0.0
2015-Apr-19 23:32N 37°52' E 023°32'0 0.0
2015-Apr-19 22:32N 37°52' E 023°32'0 0.0
2015-Apr-19 21:29N 37°52' E 023°32'0 0.0
2015-Apr-19 20:32N 37°52' E 023°32'0 0.0
2015-Apr-19 19:32N 37°52' E 023°32'0 0.0
2015-Apr-19 18:32N 37°52' E 023°32'0 0.0
2015-Apr-19 17:32N 37°52' E 023°32'0 0.2
2015-Apr-19 16:11N 37°52' E 023°33'0 0.1
2015-Apr-19 15:32N 37°52' E 023°33'0 0.4
2015-Apr-19 14:33N 37°52' E 023°33'10 9.8
2015-Apr-19 13:33N 37°46' E 023°42'1111.2
2015-Apr-19 12:33N 37°35' E 023°46'2211.2
2015-Apr-19 10:33N 37°13' E 023°42'  
Track history (hours):
 
Tides and Currents Weather Stations Pressure Air Temp Water Temp Dewpoint Dewpoint Depression Visibility Wind Speed Wind Dir Waves Ship Positions

Asterion

Last reported at 2015-Apr-28 09:33 UTC. Time now 2015-Apr-28 10:18 UTC.
Position N 43°57' E 008°59'.

Length 184 m; draft 7.1 m.

Type: Tanker. MMSI: 226000000.

Date/timePositionNaut miles runAvg speedWind from/ knotsBaromVisibWave heightAir tempDewpointWater temp
2015-Apr-28 09:33N 43°57' E 008°59'2 2.4
2015-Apr-28 08:34N 43°59' E 008°59'4 3.8
2015-Apr-28 07:33N 44°03' E 008°58'4 3.9
2015-Apr-28 06:34N 44°07' E 008°57'4 4.0
2015-Apr-28 05:34N 44°10' E 008°56'3 3.0
2015-Apr-28 04:33N 44°13' E 008°55'2 1.5
2015-Apr-28 03:33N 44°12' E 008°56'2 1.6
2015-Apr-28 02:33N 44°10' E 008°56'2 1.6
2015-Apr-28 01:34N 44°09' E 008°57'1 1.4
2015-Apr-28 00:33N 44°08' E 008°57'2 1.6
2015-Apr-27 23:33N 44°06' E 008°58'2 1.6
2015-Apr-27 22:33N 44°04' E 008°58'2 1.7
2015-Apr-27 21:33N 44°03' E 008°59'2 2.0
2015-Apr-27 20:34N 44°01' E 008°60'2 2.1
2015-Apr-27 19:33N 44°03' E 009°01'7 7.2
2015-Apr-27 18:34N 44°09' E 009°06'1 1.4
2015-Apr-27 17:34N 44°08' E 009°06'2 1.6
2015-Apr-27 16:33N 44°07' E 009°07'1 1.5
2015-Apr-27 15:33N 44°05' E 009°09'1 1.2
2015-Apr-27 14:34N 44°05' E 009°10'6 5.9
2015-Apr-27 13:33N 44°05' E 009°01'5 4.6
2015-Apr-27 12:33N 44°06' E 008°55'4 3.7
2015-Apr-27 11:34N 44°08' E 008°50'4 3.8
2015-Apr-27 10:34N 44°08' E 008°45'4 4.1
2015-Apr-27 09:34N 44°09' E 008°39'1 1.1
2015-Apr-27 08:33N 44°10' E 008°39'1 1.2
2015-Apr-27 07:33N 44°11' E 008°40'1 1.3
2015-Apr-27 06:33N 44°11' E 008°42'1 1.2
2015-Apr-27 05:33N 44°11' E 008°43'2 1.5
2015-Apr-27 04:33N 44°11' E 008°45'2 1.8
2015-Apr-27 03:33N 44°10' E 008°48'2 1.8
2015-Apr-27 02:33N 44°10' E 008°50'2 1.7
2015-Apr-27 01:33N 44°09' E 008°52'2 1.8
2015-Apr-27 00:33N 44°09' E 008°55'2 1.9
2015-Apr-26 23:33N 44°08' E 008°57'2 1.9
2015-Apr-26 22:34N 44°07' E 008°60'2 1.8
2015-Apr-26 21:33N 44°06' E 009°02'2 1.6
2015-Apr-26 20:33N 44°06' E 009°04'5 5.0
2015-Apr-26 19:34N 44°01' E 009°04'1312.8
2015-Apr-26 18:34N 43°48' E 009°04'1312.8
2015-Apr-26 17:33N 43°36' E 009°12'1313.0
2015-Apr-26 16:33N 43°25' E 009°21'1312.8
2015-Apr-26 15:33N 43°13' E 009°29'1313.1
2015-Apr-26 14:33N 43°02' E 009°36'2813.1
2015-Apr-26 12:27N 42°35' E 009°48'3812.3
2015-Apr-26 09:23N 42°03' E 010°14'1512.8
2015-Apr-26 08:13N 41°53' E 010°29'16512.9
2015-Apr-25 19:25N 40°03' E 013°13'3913.0
2015-Apr-25 16:27N 39°38' E 013°51'1213.0
2015-Apr-25 15:31N 39°30' E 014°03'1313.0
2015-Apr-25 14:32N 39°21' E 014°15'1413.4
2015-Apr-25 13:28N 39°12' E 014°29'1213.3
2015-Apr-25 12:32N 39°04' E 014°41'2713.4
2015-Apr-25 10:33N 38°48' E 015°08'3213.0
2015-Apr-25 08:08N 38°25' E 015°36'1110.4
2015-Apr-25 07:03N 38°13' E 015°37'2113.0
2015-Apr-25 05:26N 37°53' E 015°41'1212.5
2015-Apr-25 04:29N 37°49' E 015°56'37110.9
2015-Apr-23 18:33N 37°33' E 023°44'1313.0
2015-Apr-23 17:33N 37°45' E 023°39'9 8.8
2015-Apr-23 16:32N 37°52' E 023°32'0 0.0
2015-Apr-23 15:32N 37°52' E 023°32'0 0.0
2015-Apr-23 14:32N 37°52' E 023°32'0 0.0
2015-Apr-23 13:32N 37°52' E 023°32'0 0.0
2015-Apr-23 12:32N 37°52' E 023°32'0 0.0
2015-Apr-23 11:32N 37°52' E 023°33'0 0.0
2015-Apr-23 10:32N 37°52' E 023°32'0 0.0
2015-Apr-23 09:32N 37°52' E 023°32'0 0.0
2015-Apr-23 08:32N 37°52' E 023°33'0 0.1
2015-Apr-23 07:32N 37°52' E 023°32'0 0.1
2015-Apr-23 06:32N 37°52' E 023°32'0 0.0
2015-Apr-23 05:32N 37°52' E 023°32'0 0.0
2015-Apr-23 04:32N 37°52' E 023°32'0 0.0
2015-Apr-23 03:32N 37°52' E 023°32'0 0.0
2015-Apr-23 02:32N 37°52' E 023°32'0 0.0
2015-Apr-23 01:32N 37°52' E 023°32'0 0.0
2015-Apr-23 00:32N 37°52' E 023°32'0 0.0
2015-Apr-22 23:32N 37°52' E 023°32'0 0.0
2015-Apr-22 22:32N 37°52' E 023°32'0 0.1
2015-Apr-22 21:32N 37°52' E 023°32'0 0.0
2015-Apr-22 20:32N 37°52' E 023°32'0 0.0
2015-Apr-22 19:32N 37°52' E 023°32'0 0.1
2015-Apr-22 18:32N 37°52' E 023°33'0 0.0
2015-Apr-22 17:32N 37°52' E 023°33'0 0.0
2015-Apr-22 16:32N 37°52' E 023°32'0 0.0
2015-Apr-22 15:32N 37°52' E 023°32'0 0.1
2015-Apr-22 14:32N 37°52' E 023°33'0 0.0
2015-Apr-22 13:32N 37°52' E 023°33'0 0.0
2015-Apr-22 12:32N 37°52' E 023°33'0 0.0
2015-Apr-22 11:32N 37°52' E 023°33'0 0.0
2015-Apr-22 10:32N 37°52' E 023°33'0 0.0
2015-Apr-22 09:32N 37°52' E 023°33'0 0.0
2015-Apr-22 08:32N 37°52' E 023°33'0 0.1
2015-Apr-22 07:32N 37°52' E 023°33'0 0.1
2015-Apr-22 06:32N 37°52' E 023°32'0 0.0
2015-Apr-22 05:32N 37°52' E 023°32'0 0.0
2015-Apr-22 04:32N 37°52' E 023°32'0 0.0
2015-Apr-22 03:32N 37°52' E 023°32'0 0.0
2015-Apr-22 02:32N 37°52' E 023°32'0 0.0
2015-Apr-22 01:32N 37°52' E 023°32'0 0.0
2015-Apr-22 00:32N 37°52' E 023°32'0 0.0
2015-Apr-21 23:32N 37°52' E 023°32'0 0.1
2015-Apr-21 22:32N 37°52' E 023°32'0 0.0
2015-Apr-21 21:32N 37°52' E 023°32'0 0.0
2015-Apr-21 20:32N 37°52' E 023°32'0 0.0
2015-Apr-21 19:32N 37°52' E 023°32'0 0.0
2015-Apr-21 18:32N 37°52' E 023°32'0 0.0
2015-Apr-21 17:32N 37°52' E 023°32'0 0.0
2015-Apr-21 16:32N 37°52' E 023°32'0 0.1
2015-Apr-21 15:32N 37°52' E 023°32'0 0.0
2015-Apr-21 14:32N 37°52' E 023°32'0 0.0
2015-Apr-21 13:32N 37°52' E 023°32'0 0.0
2015-Apr-21 12:32N 37°52' E 023°32'0 0.0
2015-Apr-21 11:32N 37°52' E 023°32'0 0.0
2015-Apr-21 10:32N 37°52' E 023°32'0 0.0
2015-Apr-21 09:32N 37°52' E 023°32'0 0.0
2015-Apr-21 08:32N 37°52' E 023°32'0 0.0
2015-Apr-21 07:32N 37°52' E 023°32'0 0.1
2015-Apr-21 06:32N 37°52' E 023°33'0 0.0
2015-Apr-21 05:29N 37°52' E 023°33'0 0.0
2015-Apr-21 04:32N 37°52' E 023°33'0 0.0
2015-Apr-21 03:32N 37°52' E 023°33'0 0.0
2015-Apr-21 02:29N 37°52' E 023°33'0 0.0
2015-Apr-21 01:32N 37°52' E 023°33'0 0.0
2015-Apr-21 00:32N 37°52' E 023°33'0 0.1
2015-Apr-20 23:32N 37°52' E 023°32'0 0.0
2015-Apr-20 22:32N 37°52' E 023°32'0 0.0
2015-Apr-20 21:32N 37°52' E 023°32'0 0.0
2015-Apr-20 20:32N 37°52' E 023°32'0 0.0
2015-Apr-20 19:32N 37°52' E 023°32'0 0.0
2015-Apr-20 18:32N 37°52' E 023°32'0 0.1
2015-Apr-20 17:32N 37°52' E 023°32'0 0.2
2015-Apr-20 16:32N 37°52' E 023°33'0 0.1
2015-Apr-20 15:32N 37°52' E 023°33'0 0.1
2015-Apr-20 14:26N 37°52' E 023°33'0 0.1
2015-Apr-20 13:32N 37°52' E 023°33'0 0.1
2015-Apr-20 12:32N 37°52' E 023°32'0 0.1
2015-Apr-20 11:26N 37°52' E 023°32'0 0.1
2015-Apr-20 10:32N 37°52' E 023°32'0 0.0
2015-Apr-20 09:32N 37°52' E 023°32'0 0.0
2015-Apr-20 08:32N 37°52' E 023°32'0 0.0
2015-Apr-20 07:32N 37°52' E 023°32'0 0.0
2015-Apr-20 06:32N 37°52' E 023°32'0 0.1
2015-Apr-20 05:32N 37°52' E 023°32'0 0.1
2015-Apr-20 04:32N 37°52' E 023°32'0 0.0
2015-Apr-20 03:32N 37°52' E 023°32'0 0.0
2015-Apr-20 02:32N 37°52' E 023°32'0 0.0
2015-Apr-20 01:32N 37°52' E 023°32'0 0.0
2015-Apr-20 00:32N 37°52' E 023°32'0 0.0
2015-Apr-19 23:32N 37°52' E 023°32'0 0.0
2015-Apr-19 22:32N 37°52' E 023°32'0 0.0
2015-Apr-19 21:29N 37°52' E 023°32'0 0.0
2015-Apr-19 20:32N 37°52' E 023°32'0 0.0
2015-Apr-19 19:32N 37°52' E 023°32'0 0.0
2015-Apr-19 18:32N 37°52' E 023°32'0 0.0
2015-Apr-19 17:32N 37°52' E 023°32'0 0.2
2015-Apr-19 16:11N 37°52' E 023°33'0 0.1
2015-Apr-19 15:32N 37°52' E 023°33'0 0.4
2015-Apr-19 14:33N 37°52' E 023°33'10 9.8
2015-Apr-19 13:33N 37°46' E 023°42'1111.2
2015-Apr-19 12:33N 37°35' E 023°46'2211.2
2015-Apr-19 10:33N 37°13' E 023°42'  

Dump ship's entire track history